Time;durP1;ratioP1;P1;durP2;ratioP2;P2;SDS_P1;SDS_P2;PMS_P1;PMS_P2;Temp;Humidity;BMP_temperature;BMP_pressure;BME280_temperature;BME280_humidity;BME280_pressure;Samples;Min_cycle;Max_cycle;Signal;HPM_P1;HPM_P2
2021/08/29 00:02:07;;;;;;;58.07;2.90;;;12.70;1.00;;;;;;5073329;28;20927;-71
2021/08/29 00:04:34;;;;;;;58.23;2.80;;;12.70;1.00;;;;;;5073164;28;20566;-70
2021/08/29 00:07:01;;;;;;;58.40;2.73;;;12.70;1.00;;;;;;5073197;28;20486;-71
2021/08/29 00:09:29;;;;;;;58.17;2.73;;;12.60;1.00;;;;;;5073001;28;20445;-71
2021/08/29 00:11:56;;;;;;;58.17;2.70;;;12.70;1.00;;;;;;5073244;28;20510;-70
2021/08/29 00:14:23;;;;;;;58.27;2.90;;;12.70;1.00;;;;;;5073261;28;20682;-71
2021/08/29 00:16:50;;;;;;;58.20;2.60;;;12.70;1.00;;;;;;5073260;28;20454;-71
2021/08/29 00:19:17;;;;;;;58.30;3.20;;;12.60;1.00;;;;;;5073136;28;20454;-71
2021/08/29 00:21:44;;;;;;;58.40;2.83;;;12.70;1.00;;;;;;5072958;28;20443;-71
2021/08/29 00:24:10;;;;;;;58.40;3.00;;;12.70;1.00;;;;;;5072758;28;20485;-70
2021/08/29 00:26:39;;;;;;;58.27;2.80;;;12.70;1.00;;;;;;5073108;28;20534;-71
2021/08/29 00:29:05;;;;;;;58.07;2.60;;;12.70;1.00;;;;;;5072729;28;20588;-71
2021/08/29 00:31:32;;;;;;;58.07;2.80;;;12.70;1.00;;;;;;5072858;28;20459;-71
2021/08/29 00:33:59;;;;;;;58.40;3.00;;;12.80;1.00;;;;;;5072968;28;20530;-71
2021/08/29 00:36:26;;;;;;;58.37;2.93;;;12.80;1.00;;;;;;5072524;28;20470;-71
2021/08/29 00:38:53;;;;;;;59.10;3.53;;;12.80;1.00;;;;;;5072629;28;20894;-71
2021/08/29 00:41:20;;;;;;;58.20;3.03;;;12.80;1.00;;;;;;5072312;28;20458;-71
2021/08/29 00:43:48;;;;;;;61.37;3.07;;;12.80;1.00;;;;;;5072439;28;20964;-71
2021/08/29 00:46:18;;;;;;;58.27;2.90;;;12.80;1.00;;;;;;5072795;28;20566;-71
2021/08/29 00:48:45;;;;;;;58.40;3.27;;;12.80;1.00;;;;;;5072439;28;20894;-71
2021/08/29 00:51:13;;;;;;;58.07;2.70;;;12.80;1.00;;;;;;5072125;28;20538;-71
2021/08/29 00:53:43;;;;;;;58.17;2.63;;;12.80;1.00;;;;;;5072437;28;20471;-71
2021/08/29 00:56:10;;;;;;;58.13;2.60;;;12.90;1.00;;;;;;5072141;28;20443;-71
2021/08/29 00:58:37;;;;;;;58.20;2.93;;;12.90;1.00;;;;;;5072440;28;20526;-71
2021/08/29 01:01:05;;;;;;;58.90;3.53;;;12.90;1.00;;;;;;5072148;28;20447;-71
2021/08/29 01:03:35;;;;;;;58.97;3.17;;;12.90;1.00;;;;;;5072270;28;20479;-71
2021/08/29 01:06:14;;;;;;;58.03;3.00;;;12.90;1.00;;;;;;5072125;28;20838;-70
2021/08/29 01:08:43;;;;;;;58.57;3.67;;;12.90;1.00;;;;;;5072100;28;20534;-71
2021/08/29 01:11:14;;;;;;;58.17;2.63;;;12.90;1.00;;;;;;5072129;28;20447;-71
2021/08/29 01:13:45;;;;;;;58.27;2.77;;;12.90;1.00;;;;;;5072083;28;20550;-71
2021/08/29 01:16:16;;;;;;;58.27;2.70;;;12.90;1.00;;;;;;5072142;28;20526;-71
2021/08/29 01:18:45;;;;;;;58.40;3.00;;;12.90;1.00;;;;;;5072134;28;20444;-71
2021/08/29 01:21:14;;;;;;;59.10;3.37;;;12.90;1.00;;;;;;5071659;28;20500;-71
2021/08/29 01:23:44;;;;;;;58.27;2.90;;;12.90;1.00;;;;;;5072173;28;20469;-71
2021/08/29 01:26:28;;;;;;;58.30;2.70;;;12.90;1.00;;;;;;5072121;28;20509;-71
2021/08/29 01:28:58;;;;;;;58.20;3.00;;;12.90;1.00;;;;;;5071855;28;21026;-71
2021/08/29 01:31:27;;;;;;;58.17;2.90;;;12.90;1.00;;;;;;5071573;28;21018;-71
2021/08/29 01:33:57;;;;;;;58.33;2.90;;;12.90;1.00;;;;;;5071888;28;20526;-71
2021/08/29 01:36:25;;;;;;;58.33;2.70;;;12.90;1.00;;;;;;5071883;28;20518;-71
2021/08/29 01:38:52;;;;;;;58.20;2.90;;;12.90;1.00;;;;;;5071755;28;20451;-71
2021/08/29 01:41:20;;;;;;;58.17;2.80;;;12.90;1.00;;;;;;5071629;28;20447;-70
2021/08/29 01:43:48;;;;;;;58.07;2.80;;;12.90;1.00;;;;;;5071706;28;20475;-70
2021/08/29 01:46:18;;;;;;;58.27;2.80;;;12.90;1.00;;;;;;5071527;28;20485;-70
2021/08/29 01:48:46;;;;;;;58.30;2.80;;;12.90;1.00;;;;;;5072600;28;20756;-70
2021/08/29 01:51:14;;;;;;;58.40;2.87;;;12.90;1.00;;;;;;5075661;28;20542;-71
2021/08/29 01:53:41;;;;;;;58.37;3.10;;;12.90;1.00;;;;;;5075967;28;20463;-71
2021/08/29 01:56:08;;;;;;;57.87;2.60;;;12.90;1.00;;;;;;5074340;28;20454;-71
2021/08/29 01:58:36;;;;;;;58.07;2.67;;;12.90;1.00;;;;;;5075985;28;20443;-71
2021/08/29 02:01:08;;;;;;;58.23;2.63;;;12.90;1.00;;;;;;5075414;28;20970;-71
2021/08/29 02:03:37;;;;;;;58.50;2.80;;;12.90;1.00;;;;;;5074985;28;20567;-71
2021/08/29 02:06:09;;;;;;;59.33;3.20;;;12.90;1.00;;;;;;5075214;28;20565;-71
2021/08/29 02:08:39;;;;;;;58.07;2.60;;;12.90;1.00;;;;;;5075922;28;20538;-70
2021/08/29 02:11:07;;;;;;;57.87;2.67;;;12.90;1.00;;;;;;5075342;28;20454;-70
2021/08/29 02:13:36;;;;;;;60.60;3.53;;;12.90;1.20;;;;;;5075522;28;20471;-70
2021/08/29 02:16:06;;;;;;;58.17;2.53;;;12.90;1.90;;;;;;5075572;28;20443;-70
2021/08/29 02:18:37;;;;;;;58.13;2.80;;;12.90;2.10;;;;;;5075503;28;20462;-70
2021/08/29 02:21:05;;;;;;;58.07;2.50;;;12.90;2.80;;;;;;5075308;28;20450;-70
2021/08/29 02:23:33;;;;;;;58.50;2.70;;;12.90;4.20;;;;;;5075117;28;20975;-70
2021/08/29 02:26:00;;;;;;;57.93;2.53;;;12.90;4.80;;;;;;5075145;28;20569;-70
2021/08/29 02:28:28;;;;;;;58.80;2.70;;;12.90;4.70;;;;;;5075021;28;20442;-70
2021/08/29 02:30:55;;;;;;;58.17;2.53;;;12.90;5.00;;;;;;5074718;28;20450;-70
2021/08/29 02:33:23;;;;;;;58.17;2.70;;;12.90;5.00;;;;;;5074948;28;21069;-70
2021/08/29 02:35:52;;;;;;;58.83;3.50;;;12.90;5.70;;;;;;5075189;28;20538;-70
2021/08/29 02:38:20;;;;;;;58.07;2.60;;;12.90;6.60;;;;;;5074857;28;20458;-70
2021/08/29 02:40:49;;;;;;;58.30;2.67;;;12.90;7.80;;;;;;5074654;28;20864;-70
2021/08/29 02:43:19;;;;;;;58.40;2.90;;;12.90;8.70;;;;;;5074799;28;20545;-70
2021/08/29 02:45:46;;;;;;;58.07;2.67;;;12.90;8.50;;;;;;5074638;28;20479;-70
2021/08/29 02:48:14;;;;;;;58.77;3.30;;;12.90;9.60;;;;;;5074610;28;20534;-70
2021/08/29 02:50:41;;;;;;;58.23;2.80;;;12.90;11.20;;;;;;5074673;28;20453;-70
2021/08/29 02:53:09;;;;;;;59.47;3.00;;;12.90;14.20;;;;;;5074636;28;20471;-70
2021/08/29 02:55:38;;;;;;;58.30;2.80;;;12.90;13.10;;;;;;5074570;28;20530;-70
2021/08/29 02:58:08;;;;;;;57.97;2.90;;;12.90;13.70;;;;;;5074385;28;20446;-70
2021/08/29 03:00:35;;;;;;;58.50;3.00;;;12.90;13.80;;;;;;5074421;28;20447;-70
2021/08/29 03:03:02;;;;;;;58.27;2.73;;;12.90;13.80;;;;;;5074408;28;20911;-70
2021/08/29 03:05:29;;;;;;;58.13;2.60;;;12.90;15.20;;;;;;5074511;28;20486;-70
2021/08/29 03:07:57;;;;;;;58.03;2.80;;;12.90;16.50;;;;;;5074472;28;20818;-70
2021/08/29 03:10:27;;;;;;;58.23;2.80;;;12.80;17.20;;;;;;5074115;28;20517;-70
2021/08/29 03:12:54;;;;;;;58.07;2.70;;;12.80;18.80;;;;;;5074082;28;20550;-70
2021/08/29 03:15:21;;;;;;;58.20;2.80;;;12.80;18.30;;;;;;5074553;28;20549;-70
2021/08/29 03:17:48;;;;;;;58.23;2.83;;;12.80;19.80;;;;;;5074385;28;20530;-70
2021/08/29 03:20:16;;;;;;;58.20;3.00;;;12.90;22.10;;;;;;5073925;28;20447;-70
2021/08/29 03:22:44;;;;;;;58.27;2.90;;;12.90;22.00;;;;;;5074151;28;20576;-71
2021/08/29 03:25:12;;;;;;;58.20;2.83;;;12.80;21.80;;;;;;5074002;28;20502;-71
2021/08/29 03:27:41;;;;;;;57.97;2.70;;;12.80;22.60;;;;;;5074118;28;20530;-71
2021/08/29 03:30:09;;;;;;;58.17;2.73;;;12.80;23.70;;;;;;5073686;28;20449;-71
2021/08/29 03:32:36;;;;;;;58.17;2.60;;;12.80;25.50;;;;;;5073832;28;20474;-70
2021/08/29 03:35:05;;;;;;;58.80;3.60;;;12.80;27.60;;;;;;5074292;28;20881;-71
2021/08/29 03:37:32;;;;;;;59.57;5.47;;;12.80;29.10;;;;;;5073716;28;20447;-71
2021/08/29 03:40:01;;;;;;;58.37;2.80;;;12.80;30.80;;;;;;5073468;28;20886;-71
2021/08/29 03:42:31;;;;;;;58.43;2.80;;;12.70;33.60;;;;;;5073749;28;20547;-71
2021/08/29 03:45:00;;;;;;;58.03;2.93;;;12.70;36.20;;;;;;5073852;28;20447;-71
2021/08/29 03:47:27;;;;;;;58.10;3.00;;;12.70;38.70;;;;;;5073682;28;20534;-72
2021/08/29 03:49:55;;;;;;;58.30;3.00;;;12.70;41.00;;;;;;5073431;28;20535;-71
2021/08/29 03:52:22;;;;;;;58.90;2.97;;;12.70;43.10;;;;;;5073507;28;20545;-71
2021/08/29 03:54:49;;;;;;;58.27;3.17;;;12.70;46.00;;;;;;5073701;28;20448;-70
2021/08/29 03:57:16;;;;;;;58.67;3.37;;;12.60;49.60;;;;;;5073490;28;20446;-71
2021/08/29 03:59:44;;;;;;;58.20;2.70;;;12.60;51.90;;;;;;5073079;28;20969;-71
2021/08/29 04:02:12;;;;;;;58.37;2.87;;;12.60;55.20;;;;;;5073414;28;20542;-70
2021/08/29 04:04:40;;;;;;;57.97;3.00;;;12.60;59.70;;;;;;5073128;28;20542;-72
2021/08/29 04:07:09;;;;;;;58.27;3.10;;;12.60;61.50;;;;;;5073043;28;20483;-70
2021/08/29 04:09:37;;;;;;;58.20;2.67;;;12.60;62.90;;;;;;5073110;28;20526;-70
2021/08/29 04:12:06;;;;;;;58.07;2.50;;;12.60;64.50;;;;;;5072648;28;20497;-70
2021/08/29 04:14:33;;;;;;;58.07;2.67;;;12.60;67.00;;;;;;5073228;28;20447;-70
2021/08/29 04:17:00;;;;;;;58.13;2.63;;;12.60;69.60;;;;;;5072949;28;20475;-71
2021/08/29 04:19:29;;;;;;;58.17;2.80;;;12.60;72.80;;;;;;5072661;28;20451;-70
2021/08/29 04:21:57;;;;;;;58.50;3.00;;;12.60;76.30;;;;;;5073206;28;20463;-70
2021/08/29 04:24:24;;;;;;;58.10;2.80;;;12.60;78.60;;;;;;5073039;28;20450;-70
2021/08/29 04:26:51;;;;;;;58.37;3.10;;;12.60;80.70;;;;;;5072784;28;20489;-70
2021/08/29 04:29:18;;;;;;;58.17;3.00;;;12.50;82.20;;;;;;5072624;28;20451;-70
2021/08/29 04:31:49;;;;;;;58.20;3.00;;;12.60;83.70;;;;;;5072743;28;20830;-70
2021/08/29 04:34:16;;;;;;;57.97;2.60;;;12.50;85.00;;;;;;5073014;28;20469;-72
2021/08/29 04:36:44;;;;;;;58.03;2.60;;;12.60;86.30;;;;;;5072788;28;20478;-70
2021/08/29 04:39:11;;;;;;;58.17;2.77;;;12.60;87.50;;;;;;5072521;28;20450;-69
2021/08/29 04:41:38;;;;;;;57.93;2.60;;;12.60;88.70;;;;;;5072437;28;20928;-72
2021/08/29 04:44:07;;;;;;;58.10;2.60;;;12.60;90.10;;;;;;5072518;28;20979;-70
2021/08/29 04:46:34;;;;;;;58.13;2.67;;;12.60;91.00;;;;;;5072260;28;21052;-70
2021/08/29 04:49:01;;;;;;;58.13;2.90;;;12.60;93.20;;;;;;5072375;28;20966;-71
2021/08/29 04:51:29;;;;;;;58.20;3.00;;;12.60;92.60;;;;;;5072491;28;20517;-70
2021/08/29 04:53:57;;;;;;;58.70;3.07;;;12.50;92.30;;;;;;5072424;28;20465;-69
2021/08/29 04:56:24;;;;;;;58.17;2.83;;;12.60;93.90;;;;;;5072249;28;21035;-70
2021/08/29 04:58:51;;;;;;;58.33;2.60;;;12.50;95.10;;;;;;5072220;28;20447;-70
2021/08/29 05:01:18;;;;;;;58.30;3.10;;;12.50;94.50;;;;;;5071978;28;20537;-70
2021/08/29 05:03:45;;;;;;;58.13;2.60;;;12.50;94.50;;;;;;5072159;28;20554;-71
2021/08/29 05:06:13;;;;;;;57.97;2.70;;;12.50;94.40;;;;;;5072026;28;20577;-69
2021/08/29 05:08:40;;;;;;;58.87;2.70;;;12.50;94.50;;;;;;5072129;28;20959;-69
2021/08/29 05:11:08;;;;;;;58.60;2.90;;;12.50;94.50;;;;;;5071836;28;20899;-71
2021/08/29 05:13:35;;;;;;;58.53;2.90;;;12.50;94.60;;;;;;5071898;28;20467;-72
2021/08/29 05:16:02;;;;;;;58.07;3.20;;;12.60;95.20;;;;;;5071970;28;20450;-69
2021/08/29 05:18:30;;;;;;;58.30;2.90;;;12.70;95.20;;;;;;5072393;28;20443;-69
2021/08/29 05:20:57;;;;;;;58.10;2.60;;;12.70;95.30;;;;;;5071814;28;20542;-69
2021/08/29 05:23:24;;;;;;;58.00;2.83;;;12.70;95.40;;;;;;5071010;28;20630;-70
2021/08/29 05:25:50;;;;;;;58.03;2.60;;;12.70;95.70;;;;;;5071765;28;20542;-69
2021/08/29 05:28:19;;;;;;;58.33;3.00;;;12.80;96.10;;;;;;5071864;28;20545;-70
2021/08/29 05:30:46;;;;;;;58.13;2.70;;;12.80;99.40;;;;;;5071565;28;20443;-70
2021/08/29 05:33:13;;;;;;;58.10;2.80;;;12.80;97.80;;;;;;5071731;28;20463;-69
2021/08/29 05:35:39;;;;;;;58.07;2.63;;;12.80;97.10;;;;;;5072024;28;20447;-71
2021/08/29 05:38:06;;;;;;;58.30;2.83;;;12.80;97.40;;;;;;5071862;28;20886;-70
2021/08/29 05:40:33;;;;;;;58.70;3.17;;;12.80;98.60;;;;;;5071478;28;20856;-69
2021/08/29 05:43:00;;;;;;;57.80;3.00;;;12.80;99.90;;;;;;5071790;28;20541;-69
2021/08/29 05:45:28;;;;;;;58.07;2.80;;;12.90;99.90;;;;;;5071994;28;20526;-69
2021/08/29 05:47:55;;;;;;;58.03;2.70;;;12.90;99.90;;;;;;5071886;28;20530;-69
2021/08/29 05:50:22;;;;;;;58.00;2.70;;;12.90;99.90;;;;;;5071499;28;20530;-71
2021/08/29 05:52:49;;;;;;;58.27;2.87;;;13.00;99.90;;;;;;5071608;28;20463;-69
2021/08/29 05:55:16;;;;;;;58.47;2.90;;;13.00;99.90;;;;;;5071570;28;20487;-69
2021/08/29 05:57:43;;;;;;;58.47;2.97;;;13.00;99.90;;;;;;5071718;28;20522;-69
2021/08/29 06:00:11;;;;;;;58.07;2.60;;;13.00;99.90;;;;;;5071477;28;20443;-68
2021/08/29 06:02:39;;;;;;;57.87;2.90;;;13.00;99.90;;;;;;5071417;28;20474;-69
2021/08/29 06:05:07;;;;;;;57.93;2.90;;;13.00;98.70;;;;;;5071641;28;20530;-70
2021/08/29 06:07:34;;;;;;;58.30;2.90;;;13.00;97.50;;;;;;5071270;28;20490;-69
2021/08/29 06:10:01;;;;;;;58.17;2.93;;;12.90;96.00;;;;;;5071383;28;20530;-70
2021/08/29 06:12:28;;;;;;;58.07;2.70;;;12.90;95.20;;;;;;5071626;28;20506;-69
2021/08/29 06:14:54;;;;;;;58.30;2.57;;;12.90;95.10;;;;;;5071980;28;20454;-69
2021/08/29 06:17:21;;;;;;;57.87;2.60;;;12.90;95.00;;;;;;5071505;28;20982;-69
2021/08/29 06:19:49;;;;;;;58.13;2.90;;;13.00;95.50;;;;;;5071220;28;20447;-69
2021/08/29 06:22:16;;;;;;;58.17;2.80;;;13.00;95.70;;;;;;5071228;28;20467;-68
2021/08/29 06:24:43;;;;;;;58.10;2.80;;;13.10;95.90;;;;;;5071628;28;20538;-69
2021/08/29 06:27:10;;;;;;;57.77;2.70;;;13.20;95.80;;;;;;5071410;28;20520;-69
2021/08/29 06:29:37;;;;;;;58.03;2.80;;;13.20;95.30;;;;;;5071111;28;20761;-69
2021/08/29 06:32:04;;;;;;;58.90;3.00;;;13.20;94.60;;;;;;5071327;28;20463;-69
2021/08/29 06:34:31;;;;;;;58.17;2.90;;;13.30;94.10;;;;;;5071618;28;20450;-71
2021/08/29 06:36:59;;;;;;;58.03;2.70;;;13.30;94.50;;;;;;5074846;28;20457;-69
2021/08/29 06:39:26;;;;;;;58.00;2.63;;;13.30;94.30;;;;;;5074802;28;20451;-69
2021/08/29 06:41:53;;;;;;;58.07;2.67;;;13.40;93.30;;;;;;5074962;28;20496;-70
2021/08/29 06:44:20;;;;;;;58.10;2.80;;;13.40;92.60;;;;;;5074873;28;20461;-69
2021/08/29 06:46:47;;;;;;;58.30;2.60;;;13.40;92.00;;;;;;5074597;28;20517;-69
2021/08/29 06:49:14;;;;;;;58.10;2.90;;;13.40;92.10;;;;;;5074555;28;20537;-69
2021/08/29 06:51:40;;;;;;;58.33;2.60;;;13.50;91.60;;;;;;5074979;28;20447;-69
2021/08/29 06:54:09;;;;;;;57.97;2.67;;;13.50;90.80;;;;;;5074872;28;21038;-68
2021/08/29 06:56:36;;;;;;;58.20;3.10;;;13.50;91.00;;;;;;5074629;28;20471;-70
2021/08/29 06:59:03;;;;;;;57.77;2.80;;;13.40;91.10;;;;;;5074523;28;20449;-71
2021/08/29 07:01:29;;;;;;;57.83;2.70;;;13.40;91.50;;;;;;5074354;28;20528;-68
2021/08/29 07:03:56;;;;;;;58.57;3.30;;;13.40;92.10;;;;;;5074330;28;20901;-70
2021/08/29 07:06:23;;;;;;;58.00;3.00;;;13.40;92.60;;;;;;5074435;28;20495;-69
2021/08/29 07:08:50;;;;;;;58.33;3.20;;;13.30;93.30;;;;;;5074456;28;20448;-69
2021/08/29 07:11:18;;;;;;;58.50;3.40;;;13.30;94.20;;;;;;5074416;28;20475;-69
2021/08/29 07:13:45;;;;;;;58.10;2.63;;;13.30;95.00;;;;;;5074351;28;20545;-70
2021/08/29 07:16:12;;;;;;;57.77;2.77;;;13.40;96.30;;;;;;5074271;28;20458;-69
2021/08/29 07:18:39;;;;;;;57.97;2.70;;;13.50;97.30;;;;;;5074133;28;20531;-69
2021/08/29 07:21:05;;;;;;;57.73;2.50;;;13.50;98.00;;;;;;5074035;28;20454;-69
2021/08/29 07:23:32;;;;;;;57.67;2.60;;;13.50;96.90;;;;;;5074188;28;20546;-69
2021/08/29 07:25:59;;;;;;;58.07;2.60;;;13.50;96.70;;;;;;5074074;28;20447;-69
2021/08/29 07:28:27;;;;;;;58.30;2.60;;;13.50;97.10;;;;;;5074280;28;20449;-68
2021/08/29 07:30:54;;;;;;;59.00;2.93;;;13.60;96.70;;;;;;5073837;28;20475;-70
2021/08/29 07:33:21;;;;;;;57.93;2.70;;;13.60;95.10;;;;;;5073689;28;20554;-70
2021/08/29 07:35:48;;;;;;;58.07;2.70;;;13.50;94.90;;;;;;5074030;28;20454;-69
2021/08/29 07:38:15;;;;;;;57.90;2.60;;;13.50;96.10;;;;;;5074052;28;20444;-70
2021/08/29 07:40:42;;;;;;;57.83;2.60;;;13.40;95.30;;;;;;5073597;28;20453;-69
2021/08/29 07:43:09;;;;;;;57.97;2.63;;;13.40;95.40;;;;;;5073693;28;21066;-71
2021/08/29 07:45:37;;;;;;;58.03;2.90;;;13.30;96.30;;;;;;5073587;28;20483;-70
2021/08/29 07:48:05;;;;;;;57.93;2.60;;;13.40;97.20;;;;;;5072836;28;20856;-69
2021/08/29 07:50:32;;;;;;;58.17;2.77;;;13.50;98.00;;;;;;5073457;28;20443;-70
2021/08/29 07:52:58;;;;;;;58.17;2.70;;;13.60;97.70;;;;;;5073625;28;20914;-69
2021/08/29 07:55:25;;;;;;;57.83;2.50;;;13.60;97.80;;;;;;5073535;28;20453;-70
2021/08/29 07:57:52;;;;;;;58.00;3.10;;;13.50;97.40;;;;;;5073443;28;20439;-69
2021/08/29 08:00:20;;;;;;;58.17;2.77;;;13.50;98.50;;;;;;5073057;28;20528;-69
2021/08/29 08:02:48;;;;;;;57.87;2.70;;;13.50;98.30;;;;;;5073135;28;20463;-69
2021/08/29 08:05:15;;;;;;;57.97;2.53;;;13.50;99.60;;;;;;5073550;28;20448;-70
2021/08/29 08:07:41;;;;;;;57.97;2.70;;;13.50;99.90;;;;;;5073148;28;20893;-68
2021/08/29 08:10:09;;;;;;;58.03;2.90;;;13.50;99.90;;;;;;5072992;28;20448;-68
2021/08/29 08:12:36;;;;;;;57.93;2.50;;;13.50;99.90;;;;;;5073033;28;20474;-67
2021/08/29 08:15:03;;;;;;;58.10;2.60;;;13.50;99.90;;;;;;5073336;28;20443;-67
2021/08/29 08:17:30;;;;;;;57.73;2.53;;;13.50;99.90;;;;;;5073135;28;20477;-67
2021/08/29 08:19:58;;;;;;;57.87;2.57;;;13.60;99.90;;;;;;5072955;28;20448;-67
2021/08/29 08:22:25;;;;;;;57.73;2.60;;;13.60;99.90;;;;;;5073361;28;20883;-67
2021/08/29 08:24:52;;;;;;;57.77;2.47;;;13.60;99.90;;;;;;5072862;28;20870;-67
2021/08/29 08:27:19;;;;;;;57.97;2.50;;;13.70;99.90;;;;;;5072634;28;20486;-67
2021/08/29 08:29:46;;;;;;;57.77;2.70;;;13.90;99.90;;;;;;5072732;28;20530;-67
2021/08/29 08:32:13;;;;;;;57.73;2.50;;;14.10;99.90;;;;;;5072812;28;20559;-67
2021/08/29 08:34:39;;;;;;;57.73;2.57;;;14.40;99.90;;;;;;5072802;28;20489;-67
2021/08/29 08:37:08;;;;;;;57.97;2.77;;;14.50;99.90;;;;;;5072717;28;20531;-68
2021/08/29 08:39:35;;;;;;;57.87;2.50;;;14.60;99.90;;;;;;5072283;28;20538;-67
2021/08/29 08:42:01;;;;;;;57.90;2.90;;;14.80;99.90;;;;;;5072327;28;20476;-67
2021/08/29 08:44:28;;;;;;;57.67;2.50;;;14.90;99.90;;;;;;5072732;28;20449;-67
2021/08/29 08:46:57;;;;;;;57.73;2.53;;;14.80;99.90;;;;;;5072611;28;20480;-67
2021/08/29 08:49:26;;;;;;;57.93;2.80;;;14.90;99.90;;;;;;5072141;28;20539;-67
2021/08/29 08:51:56;;;;;;;57.97;2.80;;;14.90;99.90;;;;;;5072356;28;20464;-68
2021/08/29 08:54:25;;;;;;;58.03;3.00;;;15.00;99.90;;;;;;5072502;28;20532;-67
2021/08/29 08:56:53;;;;;;;57.93;2.60;;;15.00;96.90;;;;;;5072282;28;21006;-67
2021/08/29 08:59:20;;;;;;;57.37;2.70;;;15.10;94.90;;;;;;5071929;28;20610;-67
2021/08/29 09:01:47;;;;;;;58.10;2.80;;;15.10;94.10;;;;;;5072355;28;20556;-68
2021/08/29 09:04:15;;;;;;;57.87;2.70;;;15.20;89.80;;;;;;5072106;28;20555;-68
2021/08/29 09:06:42;;;;;;;57.93;2.70;;;15.10;91.20;;;;;;5071982;28;20448;-68
2021/08/29 09:09:09;;;;;;;58.00;2.70;;;15.10;90.80;;;;;;5071851;28;20958;-67
2021/08/29 09:11:37;;;;;;;57.87;2.70;;;15.10;88.20;;;;;;5072193;28;20890;-68
2021/08/29 09:14:04;;;;;;;58.07;2.80;;;15.20;88.90;;;;;;5072354;28;20449;-68
2021/08/29 09:16:31;;;;;;;57.87;2.70;;;15.20;90.30;;;;;;5072036;28;20476;-68
2021/08/29 09:19:00;;;;;;;57.67;2.50;;;15.30;90.50;;;;;;5071796;28;20448;-68
2021/08/29 09:21:29;;;;;;;57.87;2.60;;;15.40;90.20;;;;;;5071791;28;20451;-69
2021/08/29 09:23:58;;;;;;;59.37;3.43;;;15.50;91.10;;;;;;5072116;28;20452;-66
2021/08/29 09:26:28;;;;;;;58.07;3.00;;;15.60;77.00;;;;;;5071852;28;20936;-67
2021/08/29 09:28:58;;;;;;;57.97;2.70;;;15.70;79.20;;;;;;5072097;28;20570;-67
2021/08/29 09:31:28;;;;;;;57.93;2.80;;;15.70;72.00;;;;;;5071612;28;20970;-68
2021/08/29 09:34:03;;;;;;;57.87;2.47;;;15.80;65.80;;;;;;5071764;28;20450;-68
2021/08/29 09:36:31;;;;;;;57.87;2.50;;;15.90;77.00;;;;;;5071763;28;20451;-68
2021/08/29 09:39:10;;;;;;;58.00;2.50;;;15.90;77.80;;;;;;5071769;28;20452;-69
2021/08/29 09:41:37;;;;;;;58.03;2.60;;;15.90;78.90;;;;;;5071939;28;20448;-67
2021/08/29 09:44:12;;;;;;;58.23;2.70;;;15.90;78.40;;;;;;5071889;28;20455;-66
2021/08/29 09:46:57;;;;;;;58.10;2.90;;;15.80;77.80;;;;;;5071656;28;20456;-66
2021/08/29 09:49:26;;;;;;;57.67;2.57;;;15.90;76.10;;;;;;5071361;28;20456;-66
2021/08/29 09:51:53;;;;;;;57.87;2.50;;;16.00;76.90;;;;;;5071831;28;20553;-67
2021/08/29 09:54:32;;;;;;;57.97;2.50;;;16.10;55.80;;;;;;5071679;28;20541;-67
2021/08/29 09:56:59;;;;;;;58.03;2.63;;;16.00;58.60;;;;;;5071519;28;20449;-68
2021/08/29 09:59:44;;;;;;;57.97;2.80;;;15.90;64.70;;;;;;5071657;28;20472;-67
2021/08/29 10:02:13;;;;;;;58.23;2.77;;;15.60;63.60;;;;;;5071704;28;20496;-68
2021/08/29 10:04:40;;;;;;;58.20;2.67;;;15.40;66.20;;;;;;5071573;28;20459;-68
2021/08/29 10:07:12;;;;;;;58.00;2.57;;;15.20;69.00;;;;;;5071441;28;20459;-68
2021/08/29 10:09:39;;;;;;;58.03;2.63;;;15.10;69.70;;;;;;5071819;28;20509;-68
2021/08/29 10:12:07;;;;;;;57.73;2.60;;;15.10;72.70;;;;;;5075690;28;20499;-68
2021/08/29 10:14:35;;;;;;;58.03;2.70;;;15.10;72.70;;;;;;5075382;28;20448;-68
2021/08/29 10:17:04;;;;;;;58.03;2.67;;;15.10;71.40;;;;;;5075345;28;20482;-68
2021/08/29 10:19:31;;;;;;;57.87;2.73;;;15.10;69.80;;;;;;5075285;28;20463;-69
2021/08/29 10:21:59;;;;;;;57.73;2.50;;;15.00;70.30;;;;;;5075194;28;20477;-68
2021/08/29 10:24:30;;;;;;;57.77;2.50;;;15.00;70.60;;;;;;5075487;28;20451;-68
2021/08/29 10:27:03;;;;;;;57.63;2.60;;;15.00;74.20;;;;;;5075137;28;20439;-68
2021/08/29 10:29:35;;;;;;;57.87;2.70;;;15.00;78.60;;;;;;5074884;28;20956;-68
2021/08/29 10:32:10;;;;;;;57.87;2.60;;;15.00;80.20;;;;;;5075114;28;20475;-68
2021/08/29 10:34:38;;;;;;;57.53;2.60;;;15.00;78.00;;;;;;5074974;28;20447;-68
2021/08/29 10:37:05;;;;;;;57.77;2.50;;;15.00;75.00;;;;;;5074948;28;20455;-68
2021/08/29 10:39:32;;;;;;;57.83;2.60;;;15.00;74.50;;;;;;5074720;28;20448;-69
2021/08/29 10:42:01;;;;;;;57.80;2.57;;;14.90;76.00;;;;;;5074988;28;20565;-68
2021/08/29 10:44:28;;;;;;;58.00;2.70;;;15.00;74.00;;;;;;5074805;28;20451;-70
2021/08/29 10:46:57;;;;;;;57.77;2.60;;;15.00;69.70;;;;;;5074708;28;20444;-68
2021/08/29 10:49:26;;;;;;;57.83;2.57;;;15.10;68.90;;;;;;5074575;28;21028;-69
2021/08/29 10:51:54;;;;;;;57.90;2.63;;;15.10;64.50;;;;;;5074758;28;20498;-69
2021/08/29 10:54:21;;;;;;;57.77;2.50;;;15.10;63.30;;;;;;5074726;28;20943;-68
2021/08/29 10:56:48;;;;;;;57.97;2.70;;;15.20;60.70;;;;;;5074552;28;20451;-68
2021/08/29 10:59:26;;;;;;;57.57;2.50;;;15.20;60.80;;;;;;5074372;28;20533;-69
2021/08/29 11:01:54;;;;;;;57.57;2.50;;;15.20;59.70;;;;;;5074888;28;20463;-69
2021/08/29 11:04:45;;;;;;;57.90;2.57;;;15.20;58.10;;;;;;5074558;28;20475;-68
2021/08/29 11:07:12;;;;;;;58.00;2.40;;;15.20;66.10;;;;;;5074319;28;20948;-69
2021/08/29 11:09:46;;;;;;;58.27;2.87;;;15.20;68.10;;;;;;5074051;28;20540;-69
2021/08/29 11:12:31;;;;;;;57.97;2.50;;;15.10;67.60;;;;;;5074605;28;20471;-69
2021/08/29 11:14:59;;;;;;;57.77;2.50;;;15.20;68.80;;;;;;5074556;28;20444;-69
2021/08/29 11:17:27;;;;;;;57.80;2.50;;;15.20;71.90;;;;;;5074391;28;20450;-69
2021/08/29 11:20:10;;;;;;;58.00;2.70;;;15.20;72.10;;;;;;5073935;28;20446;-68
2021/08/29 11:22:39;;;;;;;57.70;2.60;;;15.20;70.50;;;;;;5073014;28;20456;-69
2021/08/29 11:25:13;;;;;;;57.97;2.50;;;15.30;65.50;;;;;;5074305;28;20534;-68
2021/08/29 11:28:01;;;;;;;57.57;2.50;;;15.30;65.60;;;;;;5074240;28;20476;-69
2021/08/29 11:30:43;;;;;;;57.93;2.40;;;15.30;69.20;;;;;;5074270;28;20450;-69
2021/08/29 11:33:11;;;;;;;58.17;2.77;;;15.40;74.30;;;;;;5074193;28;20908;-69
2021/08/29 11:35:46;;;;;;;57.87;2.70;;;15.50;77.00;;;;;;5074087;28;20449;-67
2021/08/29 11:38:15;;;;;;;58.07;2.70;;;15.50;75.20;;;;;;5073946;28;20451;-66
2021/08/29 11:40:52;;;;;;;57.47;2.60;;;15.40;75.00;;;;;;5073647;28;20552;-68
2021/08/29 11:43:20;;;;;;;57.97;2.50;;;15.40;76.80;;;;;;5073706;28;20469;-68
2021/08/29 11:45:57;;;;;;;57.87;2.70;;;15.40;75.00;;;;;;5073847;28;20540;-68
2021/08/29 11:48:25;;;;;;;58.03;2.70;;;15.40;74.20;;;;;;5073775;28;20479;-68
2021/08/29 11:50:53;;;;;;;58.43;3.43;;;15.30;72.70;;;;;;5073460;28;20451;-68
2021/08/29 11:53:21;;;;;;;57.77;2.60;;;15.30;71.30;;;;;;5073592;28;20830;-67
2021/08/29 11:55:48;;;;;;;57.70;2.50;;;15.40;72.70;;;;;;5073590;28;20484;-68
2021/08/29 11:58:20;;;;;;;57.70;2.60;;;15.60;74.20;;;;;;5073690;28;20445;-67
2021/08/29 12:00:47;;;;;;;58.40;3.40;;;15.70;75.10;;;;;;5073276;28;20895;-68
2021/08/29 12:03:14;;;;;;;58.50;2.87;;;15.70;67.90;;;;;;5073322;28;20486;-68
2021/08/29 12:05:54;;;;;;;57.97;2.50;;;15.70;63.60;;;;;;5073307;28;20448;-68
2021/08/29 12:08:31;;;;;;;57.57;2.50;;;15.60;63.20;;;;;;5073187;28;20468;-68
2021/08/29 12:10:59;;;;;;;58.00;2.70;;;15.60;63.50;;;;;;5073079;28;20955;-70
2021/08/29 12:13:30;;;;;;;57.67;2.80;;;15.60;64.00;;;;;;5073063;28;20465;-68
2021/08/29 12:16:02;;;;;;;57.97;2.67;;;15.60;63.10;;;;;;5073012;28;20444;-68
2021/08/29 12:18:32;;;;;;;57.93;2.57;;;15.50;62.50;;;;;;5073093;28;20441;-68
2021/08/29 12:21:02;;;;;;;57.90;2.50;;;15.40;60.70;;;;;;5072733;28;20452;-68
2021/08/29 12:23:29;;;;;;;57.87;2.73;;;15.30;58.70;;;;;;5073093;28;20545;-68
2021/08/29 12:25:58;;;;;;;57.77;2.90;;;15.30;57.10;;;;;;5072801;28;20547;-67
2021/08/29 12:28:26;;;;;;;57.97;2.60;;;15.30;58.30;;;;;;5072971;28;20487;-68
2021/08/29 12:30:55;;;;;;;57.97;2.70;;;15.40;59.80;;;;;;5072466;28;20461;-69
2021/08/29 12:33:23;;;;;;;58.00;2.60;;;15.50;62.10;;;;;;5072190;28;20503;-67
2021/08/29 12:35:50;;;;;;;57.67;2.50;;;15.60;61.40;;;;;;5072844;28;20492;-67
2021/08/29 12:38:20;;;;;;;58.00;2.40;;;15.70;60.90;;;;;;5072598;28;20446;-68
2021/08/29 12:40:47;;;;;;;57.67;2.60;;;15.80;62.10;;;;;;5072409;28;20536;-68
2021/08/29 12:43:14;;;;;;;57.90;2.70;;;15.90;65.20;;;;;;5072464;28;20552;-68
2021/08/29 12:45:41;;;;;;;57.87;2.50;;;16.00;66.80;;;;;;5072365;28;20453;-68